Time;durP1;ratioP1;P1;durP2;ratioP2;P2;SDS_P1;SDS_P2;PMS_P1;PMS_P2;Temp;Humidity;BMP_temperature;BMP_pressure;BME280_temperature;BME280_humidity;BME280_pressure;Samples;Min_cycle;Max_cycle;Signal;HPM_P1;HPM_P2
2021/07/02 00:01:03;;;;;;;1.60;1.00;;;15.30;98.20;;;;;;5022118;28;20471;-77
2021/07/02 00:03:30;;;;;;;1.57;1.00;;;15.30;98.20;;;;;;5055510;28;20852;-77
2021/07/02 00:05:57;;;;;;;1.50;1.00;;;15.30;98.20;;;;;;5021067;28;21009;-77
2021/07/02 00:08:26;;;;;;;1.57;1.00;;;15.30;98.20;;;;;;5059200;28;20456;-77
2021/07/02 00:10:53;;;;;;;1.50;1.00;;;15.30;98.20;;;;;;5021763;28;21002;-76
2021/07/02 00:13:20;;;;;;;1.50;0.90;;;15.30;98.20;;;;;;5059078;28;20486;-77
2021/07/02 00:15:47;;;;;;;1.57;1.00;;;15.30;98.20;;;;;;5025170;28;20471;-77
2021/07/02 00:18:15;;;;;;;1.50;1.00;;;15.30;98.20;;;;;;5058523;28;20467;-77
2021/07/02 00:20:42;;;;;;;1.50;0.93;;;15.30;98.20;;;;;;5028459;28;20491;-77
2021/07/02 00:23:09;;;;;;;1.50;1.00;;;15.30;98.20;;;;;;5050723;28;20486;-76
2021/07/02 00:25:37;;;;;;;1.50;1.00;;;15.30;98.20;;;;;;5031079;28;20459;-77
2021/07/02 00:28:04;;;;;;;1.50;0.93;;;15.30;98.20;;;;;;5048076;28;20492;-77
2021/07/02 00:30:32;;;;;;;1.50;0.93;;;15.30;98.20;;;;;;5030705;28;20486;-77
2021/07/02 00:32:59;;;;;;;1.50;0.90;;;15.30;98.20;;;;;;5035027;28;20478;-77
2021/07/02 00:35:27;;;;;;;1.50;1.00;;;15.20;98.20;;;;;;5026353;28;20465;-76
2021/07/02 00:37:54;;;;;;;1.50;1.00;;;15.20;98.20;;;;;;5048295;28;20473;-77
2021/07/02 00:40:21;;;;;;;1.50;1.00;;;15.20;98.20;;;;;;5029491;28;20465;-75
2021/07/02 00:42:48;;;;;;;1.57;1.00;;;15.20;98.20;;;;;;5036009;28;20482;-77
2021/07/02 00:45:14;;;;;;;1.50;1.03;;;15.20;98.20;;;;;;5033037;28;20471;-77
2021/07/02 00:47:41;;;;;;;1.50;1.00;;;15.20;98.20;;;;;;5036923;28;20632;-76
2021/07/02 00:50:09;;;;;;;1.50;0.90;;;15.20;98.20;;;;;;5032749;28;20465;-76
2021/07/02 00:52:37;;;;;;;1.53;1.00;;;15.20;98.20;;;;;;5054169;28;20477;-77
2021/07/02 00:55:05;;;;;;;1.57;1.00;;;15.20;98.20;;;;;;5034170;28;20474;-77
2021/07/02 00:57:35;;;;;;;1.50;1.00;;;15.10;98.20;;;;;;5045535;28;20507;-77
2021/07/02 01:00:02;;;;;;;1.50;1.00;;;15.10;98.20;;;;;;5035465;28;20467;-76
2021/07/02 01:02:34;;;;;;;1.57;0.93;;;15.10;98.20;;;;;;5048800;28;20504;-77
2021/07/02 01:05:01;;;;;;;1.60;1.10;;;15.00;98.20;;;;;;5030900;28;20864;-76
2021/07/02 01:07:28;;;;;;;1.60;1.00;;;15.00;98.20;;;;;;5046400;28;20481;-76
2021/07/02 01:09:56;;;;;;;1.53;1.00;;;15.00;98.20;;;;;;5036192;28;20455;-76
2021/07/02 01:12:23;;;;;;;1.50;0.90;;;15.00;98.20;;;;;;5033623;28;20489;-77
2021/07/02 01:14:50;;;;;;;1.50;1.00;;;15.00;98.20;;;;;;5032974;28;20470;-77
2021/07/02 01:17:17;;;;;;;1.57;1.00;;;15.00;98.20;;;;;;5044326;28;20481;-76
2021/07/02 01:19:49;;;;;;;1.50;1.00;;;14.90;98.20;;;;;;5040121;28;20550;-76
2021/07/02 01:22:23;;;;;;;1.53;0.90;;;14.90;98.20;;;;;;5032842;28;20482;-77
2021/07/02 01:24:50;;;;;;;1.53;1.00;;;14.90;98.20;;;;;;5034155;28;20486;-76
2021/07/02 01:27:18;;;;;;;1.57;1.00;;;14.90;98.20;;;;;;5045520;28;20499;-76
2021/07/02 01:29:45;;;;;;;1.50;1.00;;;14.90;98.20;;;;;;5036796;28;20954;-76
2021/07/02 01:32:12;;;;;;;1.60;1.10;;;14.90;98.20;;;;;;5043847;28;20493;-76
2021/07/02 01:34:40;;;;;;;1.50;1.00;;;14.90;98.20;;;;;;5040885;28;20470;-76
2021/07/02 01:37:08;;;;;;;1.50;1.00;;;14.90;98.20;;;;;;5032150;28;20486;-75
2021/07/02 01:39:37;;;;;;;1.60;1.10;;;14.80;98.20;;;;;;5036299;28;21080;-75
2021/07/02 01:42:05;;;;;;;1.50;1.00;;;14.80;98.20;;;;;;5040936;28;20481;-76
2021/07/02 01:44:32;;;;;;;1.50;1.10;;;14.80;98.20;;;;;;5041139;28;20853;-75
2021/07/02 01:46:59;;;;;;;1.57;1.10;;;14.80;98.20;;;;;;5038807;28;20473;-76
2021/07/02 01:49:25;;;;;;;1.53;1.00;;;14.80;98.20;;;;;;5041787;28;20497;-76
2021/07/02 01:51:52;;;;;;;1.50;0.90;;;14.80;98.20;;;;;;5036473;28;20495;-76
2021/07/02 01:54:19;;;;;;;1.50;1.00;;;14.80;98.20;;;;;;5044478;28;20466;-75
2021/07/02 01:56:48;;;;;;;1.53;0.97;;;14.80;98.20;;;;;;5036952;28;20484;-76
2021/07/02 01:59:15;;;;;;;1.50;0.90;;;14.80;98.20;;;;;;5046404;28;21018;-75
2021/07/02 02:01:42;;;;;;;1.50;1.00;;;14.80;98.20;;;;;;5034502;28;20572;-76
2021/07/02 02:04:09;;;;;;;1.50;1.00;;;14.80;98.20;;;;;;5045076;28;20494;-76
2021/07/02 02:06:36;;;;;;;1.57;1.00;;;14.80;98.20;;;;;;5034589;28;20485;-76
2021/07/02 02:09:03;;;;;;;1.60;1.00;;;14.80;98.20;;;;;;5048985;28;20466;-76
2021/07/02 02:11:30;;;;;;;1.50;1.00;;;14.80;98.20;;;;;;5030831;28;20589;-76
2021/07/02 02:13:58;;;;;;;1.53;1.00;;;14.80;98.20;;;;;;5051535;28;21070;-76
2021/07/02 02:16:25;;;;;;;1.60;1.00;;;14.80;98.20;;;;;;5027701;28;21004;-75
2021/07/02 02:18:52;;;;;;;1.50;0.90;;;14.80;98.20;;;;;;5041111;28;20466;-76
2021/07/02 02:21:20;;;;;;;1.60;1.10;;;14.80;98.20;;;;;;5030168;28;20473;-75
2021/07/02 02:23:46;;;;;;;1.53;1.00;;;14.80;98.20;;;;;;5052561;28;20563;-77
2021/07/02 02:26:13;;;;;;;1.60;1.00;;;14.80;98.20;;;;;;5028371;28;20478;-76
2021/07/02 02:28:40;;;;;;;1.53;1.00;;;14.80;98.20;;;;;;5055436;28;20463;-76
2021/07/02 02:31:09;;;;;;;1.53;1.00;;;14.80;98.20;;;;;;5025255;28;20481;-76
2021/07/02 02:33:36;;;;;;;1.53;1.00;;;14.80;98.20;;;;;;5057039;28;20474;-76
2021/07/02 02:36:04;;;;;;;1.50;0.90;;;14.80;98.20;;;;;;5025433;28;20608;-76
2021/07/02 02:38:31;;;;;;;1.50;0.97;;;14.80;98.20;;;;;;5058160;28;20464;-76
2021/07/02 02:40:58;;;;;;;1.53;1.00;;;14.80;98.20;;;;;;5022620;28;20491;-77
2021/07/02 02:43:25;;;;;;;1.50;1.00;;;14.80;98.20;;;;;;5059547;28;20513;-76
2021/07/02 02:45:51;;;;;;;1.50;1.00;;;14.80;98.20;;;;;;5022271;28;20483;-75
2021/07/02 02:48:20;;;;;;;1.50;1.00;;;14.90;98.20;;;;;;5057802;28;20467;-76
2021/07/02 02:50:46;;;;;;;1.50;0.93;;;14.80;98.20;;;;;;5022865;28;21063;-77
2021/07/02 02:53:13;;;;;;;1.60;1.00;;;14.80;98.20;;;;;;5061632;28;20470;-76
2021/07/02 02:55:40;;;;;;;1.50;0.90;;;14.90;98.20;;;;;;5030157;28;20459;-76
2021/07/02 02:58:07;;;;;;;1.53;0.93;;;14.80;98.20;;;;;;5049994;28;20475;-77
2021/07/02 03:00:33;;;;;;;1.60;1.30;;;14.80;98.20;;;;;;5030457;28;20995;-76
2021/07/02 03:03:00;;;;;;;1.57;1.00;;;14.80;98.20;;;;;;5033178;28;20516;-75
2021/07/02 03:05:28;;;;;;;1.53;1.00;;;14.80;98.20;;;;;;5032508;28;20483;-76
2021/07/02 03:07:55;;;;;;;1.50;1.00;;;14.80;98.20;;;;;;5033351;28;20484;-75
2021/07/02 03:10:22;;;;;;;1.57;0.90;;;14.80;98.20;;;;;;5010587;28;20527;-75
2021/07/02 03:12:49;;;;;;;1.57;1.00;;;14.80;98.20;;;;;;5031887;28;20483;-75
2021/07/02 03:15:16;;;;;;;1.57;1.00;;;14.90;98.20;;;;;;5010497;28;20464;-75
2021/07/02 03:17:43;;;;;;;1.57;1.00;;;14.80;98.20;;;;;;5034899;28;20492;-76
2021/07/02 03:20:11;;;;;;;1.50;1.00;;;14.80;98.20;;;;;;5010901;28;20468;-76
2021/07/02 03:22:41;;;;;;;1.60;1.10;;;14.80;98.20;;;;;;5027206;28;20486;-75
2021/07/02 03:25:10;;;;;;;1.50;1.00;;;14.80;98.20;;;;;;5011457;28;20919;-75
2021/07/02 03:27:37;;;;;;;1.50;1.00;;;14.80;98.20;;;;;;5031113;28;20481;-75
2021/07/02 03:30:05;;;;;;;1.57;1.10;;;14.80;98.20;;;;;;5011559;28;20464;-76
2021/07/02 03:32:32;;;;;;;1.53;1.00;;;14.80;98.20;;;;;;5029962;28;20489;-76
2021/07/02 03:34:59;;;;;;;1.60;1.00;;;14.80;98.20;;;;;;5010561;28;20546;-75
2021/07/02 03:37:27;;;;;;;1.50;1.00;;;14.80;98.20;;;;;;5026522;28;20482;-76
2021/07/02 03:39:56;;;;;;;1.57;1.00;;;14.90;98.20;;;;;;5014880;28;20472;-76
2021/07/02 03:42:22;;;;;;;1.57;1.03;;;14.80;98.20;;;;;;5025342;28;20536;-75
2021/07/02 03:44:49;;;;;;;1.50;0.93;;;14.80;98.20;;;;;;5015923;28;20484;-76
2021/07/02 03:47:16;;;;;;;1.50;0.97;;;14.80;98.20;;;;;;5023286;28;20970;-77
2021/07/02 03:49:43;;;;;;;1.57;1.00;;;14.70;98.20;;;;;;5017128;28;20464;-76
2021/07/02 03:52:10;;;;;;;1.53;1.00;;;14.70;98.20;;;;;;5020553;28;20990;-76
2021/07/02 03:54:37;;;;;;;1.50;1.00;;;14.70;98.20;;;;;;5020522;28;20464;-75
2021/07/02 03:57:16;;;;;;;1.50;1.00;;;14.70;98.20;;;;;;5018339;28;20483;-76
2021/07/02 03:59:45;;;;;;;1.53;1.00;;;14.60;98.20;;;;;;5019427;28;20472;-76
2021/07/02 04:02:12;;;;;;;1.60;1.00;;;14.60;98.20;;;;;;5017059;28;20495;-75
2021/07/02 04:04:41;;;;;;;1.50;1.00;;;14.60;98.20;;;;;;5015369;28;20579;-75
2021/07/02 04:07:09;;;;;;;1.60;1.10;;;14.60;98.20;;;;;;5019896;28;20482;-75
2021/07/02 04:09:36;;;;;;;1.57;1.00;;;14.60;98.20;;;;;;5018459;28;20958;-75
2021/07/02 04:12:06;;;;;;;1.53;1.00;;;14.60;98.20;;;;;;5024408;28;20482;-76
2021/07/02 04:14:33;;;;;;;1.57;1.00;;;14.60;98.20;;;;;;5019387;28;20461;-76
2021/07/02 04:17:00;;;;;;;1.50;1.00;;;14.50;98.20;;;;;;5020916;28;20628;-76
2021/07/02 04:19:27;;;;;;;1.60;1.10;;;14.50;98.20;;;;;;5026656;28;20467;-75
2021/07/02 04:21:54;;;;;;;1.53;1.00;;;14.50;98.20;;;;;;5020897;28;20492;-75
2021/07/02 04:24:21;;;;;;;1.53;1.00;;;14.50;98.20;;;;;;5029294;28;20506;-76
2021/07/02 04:26:48;;;;;;;1.50;1.00;;;14.50;98.20;;;;;;5017052;28;20632;-75
2021/07/02 04:29:17;;;;;;;1.57;1.10;;;14.50;98.20;;;;;;5024683;28;20491;-77
2021/07/02 04:31:44;;;;;;;1.53;1.00;;;14.50;98.20;;;;;;5014452;28;20500;-76
2021/07/02 04:34:11;;;;;;;1.57;1.10;;;14.50;98.20;;;;;;5024794;28;20464;-75
2021/07/02 04:36:37;;;;;;;1.53;1.00;;;14.50;98.20;;;;;;5015246;28;20482;-75
2021/07/02 04:39:05;;;;;;;1.60;1.20;;;14.50;98.20;;;;;;5042315;28;20796;-75
2021/07/02 04:41:32;;;;;;;1.60;1.10;;;14.50;98.20;;;;;;5027883;28;20612;-75
2021/07/02 04:43:59;;;;;;;1.53;1.00;;;14.50;98.20;;;;;;5047418;28;20852;-75
2021/07/02 04:46:27;;;;;;;1.53;1.00;;;14.50;98.20;;;;;;5027931;28;20497;-75
2021/07/02 04:48:54;;;;;;;1.53;1.00;;;14.50;98.20;;;;;;5048655;28;20467;-75
2021/07/02 04:51:21;;;;;;;1.57;1.10;;;14.50;98.20;;;;;;5026574;28;20560;-75
2021/07/02 04:53:48;;;;;;;1.60;1.00;;;14.50;98.20;;;;;;5052669;28;20463;-75
2021/07/02 04:56:15;;;;;;;1.50;0.93;;;14.60;98.20;;;;;;5026900;28;20991;-74
2021/07/02 04:58:43;;;;;;;1.57;1.00;;;14.60;98.20;;;;;;5052039;28;20463;-75
2021/07/02 05:01:12;;;;;;;1.53;1.00;;;14.70;98.20;;;;;;5023380;28;20516;-75
2021/07/02 05:03:40;;;;;;;1.53;1.00;;;14.70;98.20;;;;;;5053099;28;20827;-75
2021/07/02 05:06:07;;;;;;;1.60;1.03;;;14.80;98.20;;;;;;5024220;28;20552;-75
2021/07/02 05:08:34;;;;;;;1.60;1.00;;;14.80;98.20;;;;;;5051417;28;20560;-75
2021/07/02 05:11:02;;;;;;;1.53;1.00;;;14.90;98.20;;;;;;5022955;28;20487;-75
2021/07/02 05:13:29;;;;;;;1.50;1.00;;;15.00;98.20;;;;;;5054813;28;20901;-75
2021/07/02 05:15:56;;;;;;;1.57;1.00;;;15.00;98.20;;;;;;5022275;28;20459;-75
2021/07/02 05:18:22;;;;;;;1.57;1.10;;;15.10;98.20;;;;;;5055716;28;20511;-75
2021/07/02 05:20:50;;;;;;;1.57;1.00;;;15.20;98.20;;;;;;5023535;28;20505;-75
2021/07/02 05:23:17;;;;;;;1.50;0.90;;;15.20;98.20;;;;;;5059110;28;20469;-75
2021/07/02 05:25:44;;;;;;;1.53;1.00;;;15.30;98.20;;;;;;5028337;28;20489;-75
2021/07/02 05:28:11;;;;;;;1.50;0.97;;;15.40;98.20;;;;;;5038210;28;20459;-75
2021/07/02 05:30:38;;;;;;;1.50;1.00;;;15.50;98.20;;;;;;5034575;28;20578;-75
2021/07/02 05:33:05;;;;;;;1.50;1.00;;;15.50;98.20;;;;;;5031697;28;20506;-75
2021/07/02 05:35:32;;;;;;;1.53;1.00;;;15.60;98.20;;;;;;5031941;28;20462;-75
2021/07/02 05:38:00;;;;;;;1.50;1.00;;;15.70;98.20;;;;;;5034966;28;20470;-75
2021/07/02 05:40:27;;;;;;;1.50;0.90;;;15.80;98.20;;;;;;5031569;28;20501;-75
2021/07/02 05:42:54;;;;;;;1.57;1.00;;;15.90;98.20;;;;;;5032081;28;20509;-76
2021/07/02 05:45:20;;;;;;;1.57;1.00;;;15.90;98.20;;;;;;5031809;28;20901;-75
2021/07/02 05:47:49;;;;;;;1.53;1.00;;;16.00;98.20;;;;;;5028968;28;20463;-75
2021/07/02 05:50:17;;;;;;;1.53;1.10;;;16.10;98.20;;;;;;5027008;28;20478;-75
2021/07/02 05:52:44;;;;;;;1.50;1.00;;;16.20;98.20;;;;;;5033110;28;20471;-76
2021/07/02 05:55:13;;;;;;;1.57;1.10;;;16.20;98.20;;;;;;5030787;28;21219;-75
2021/07/02 05:57:40;;;;;;;1.50;0.90;;;16.40;98.20;;;;;;5034267;28;20871;-75
2021/07/02 06:00:09;;;;;;;1.50;1.00;;;16.50;98.20;;;;;;5034902;28;20471;-75
2021/07/02 06:02:35;;;;;;;1.50;1.00;;;16.60;98.20;;;;;;5030266;28;20474;-76
2021/07/02 06:05:03;;;;;;;1.53;1.00;;;16.70;98.20;;;;;;5032106;28;20483;-75
2021/07/02 06:07:30;;;;;;;1.53;1.00;;;16.70;98.20;;;;;;5032181;28;20482;-75
2021/07/02 06:09:56;;;;;;;1.50;1.00;;;16.80;98.20;;;;;;5020091;28;20477;-76
2021/07/02 06:12:25;;;;;;;1.57;0.90;;;16.90;98.20;;;;;;5012216;28;20486;-75
2021/07/02 06:14:51;;;;;;;1.53;1.00;;;16.90;98.20;;;;;;5013866;28;21044;-75
2021/07/02 06:17:18;;;;;;;1.53;1.00;;;16.90;98.20;;;;;;5025033;28;20482;-75
2021/07/02 06:19:45;;;;;;;1.53;1.00;;;16.90;98.20;;;;;;5035524;28;20455;-75
2021/07/02 06:22:12;;;;;;;1.50;0.90;;;17.00;98.20;;;;;;5031986;28;20490;-75
2021/07/02 06:24:38;;;;;;;1.50;1.00;;;16.90;98.20;;;;;;5034119;28;20463;-75
2021/07/02 06:27:06;;;;;;;1.53;1.00;;;16.90;98.20;;;;;;5040402;28;20487;-75
2021/07/02 06:29:34;;;;;;;1.50;0.90;;;16.90;98.20;;;;;;5038344;28;20471;-75
2021/07/02 06:32:01;;;;;;;1.53;1.00;;;16.90;98.20;;;;;;5029886;28;20584;-75
2021/07/02 06:34:27;;;;;;;1.50;1.00;;;17.00;98.20;;;;;;5034566;28;20471;-75
2021/07/02 06:36:55;;;;;;;1.60;1.00;;;17.00;98.20;;;;;;5036890;28;20481;-76
2021/07/02 06:39:21;;;;;;;1.50;0.90;;;17.10;98.20;;;;;;5042139;28;20478;-75
2021/07/02 06:41:48;;;;;;;1.53;1.00;;;17.10;98.20;;;;;;5035111;28;20485;-75
2021/07/02 06:44:15;;;;;;;1.53;1.00;;;17.20;98.20;;;;;;5044371;28;20961;-75
2021/07/02 06:46:43;;;;;;;1.57;0.90;;;17.30;98.20;;;;;;5033622;28;20980;-74
2021/07/02 06:49:10;;;;;;;1.50;1.00;;;17.30;98.20;;;;;;5046180;28;20474;-75
2021/07/02 06:51:37;;;;;;;1.60;1.00;;;17.40;98.20;;;;;;5031098;28;20474;-75
2021/07/02 06:54:04;;;;;;;1.53;0.90;;;17.40;98.20;;;;;;5049046;28;20463;-77
2021/07/02 06:56:32;;;;;;;1.50;1.00;;;17.60;98.20;;;;;;5033512;28;20495;-76
2021/07/02 06:58:59;;;;;;;1.50;1.00;;;17.70;98.20;;;;;;5046012;28;20462;-78
2021/07/02 07:01:26;;;;;;;1.50;0.93;;;17.90;98.20;;;;;;5023895;28;20482;-77
2021/07/02 07:03:54;;;;;;;1.50;0.90;;;18.00;98.20;;;;;;5040126;28;20463;-76
2021/07/02 07:06:21;;;;;;;1.60;1.00;;;18.10;98.20;;;;;;5026302;28;20478;-77
2021/07/02 07:08:47;;;;;;;1.50;0.90;;;18.30;98.20;;;;;;5051954;28;20470;-77
2021/07/02 07:11:15;;;;;;;1.57;0.90;;;18.50;98.20;;;;;;5021872;28;21029;-76
2021/07/02 07:13:41;;;;;;;1.50;0.90;;;18.70;98.20;;;;;;5040954;28;20495;-76
2021/07/02 07:16:09;;;;;;;1.50;0.90;;;18.80;98.20;;;;;;5024466;28;20553;-77
2021/07/02 07:18:36;;;;;;;1.50;0.90;;;18.90;98.20;;;;;;5054088;28;20502;-76
2021/07/02 07:21:05;;;;;;;1.53;0.90;;;19.10;98.20;;;;;;5023528;28;20487;-77
2021/07/02 07:23:31;;;;;;;1.57;0.90;;;19.30;98.20;;;;;;5055866;28;20460;-76
2021/07/02 07:25:58;;;;;;;1.50;0.90;;;19.60;98.20;;;;;;5020725;28;20522;-77
2021/07/02 07:28:25;;;;;;;1.57;1.00;;;20.00;97.50;;;;;;5039597;28;20463;-76
2021/07/02 07:30:52;;;;;;;1.50;0.90;;;20.40;95.20;;;;;;5018546;28;20487;-74
2021/07/02 07:33:19;;;;;;;1.53;0.90;;;20.70;93.80;;;;;;5061803;28;20459;-75
2021/07/02 07:35:46;;;;;;;1.60;0.90;;;21.00;93.80;;;;;;5029302;28;20985;-74
2021/07/02 07:38:14;;;;;;;1.57;0.90;;;21.20;91.00;;;;;;5031765;28;20482;-75
2021/07/02 07:40:41;;;;;;;1.57;0.90;;;21.30;89.90;;;;;;5029453;28;20497;-75
2021/07/02 07:43:08;;;;;;;1.53;0.90;;;21.40;88.50;;;;;;5050029;28;20487;-76
2021/07/02 07:45:35;;;;;;;1.50;1.00;;;21.50;88.40;;;;;;5029411;28;21032;-75
2021/07/02 07:48:02;;;;;;;1.50;0.90;;;21.40;88.30;;;;;;5053780;28;20488;-76
2021/07/02 07:50:31;;;;;;;1.50;0.90;;;21.50;87.10;;;;;;5031164;28;20491;-77
2021/07/02 07:53:00;;;;;;;1.53;0.90;;;21.80;87.40;;;;;;5044871;28;20489;-79
2021/07/02 07:55:29;;;;;;;1.57;1.03;;;21.90;86.20;;;;;;5027699;28;20465;-76
2021/07/02 07:57:57;;;;;;;1.50;0.90;;;21.90;85.60;;;;;;5032797;28;20477;-76
2021/07/02 08:00:24;;;;;;;1.50;0.90;;;21.90;87.00;;;;;;5029773;28;20459;-78
2021/07/02 08:02:51;;;;;;;1.50;0.90;;;21.90;85.50;;;;;;5049179;28;20477;-77
2021/07/02 08:05:18;;;;;;;1.50;0.90;;;21.90;85.30;;;;;;5030666;28;20513;-76
2021/07/02 08:07:46;;;;;;;1.53;0.90;;;21.90;85.30;;;;;;5047873;28;20842;-76
2021/07/02 08:10:15;;;;;;;1.53;0.90;;;21.80;84.70;;;;;;5029221;28;21050;-78
2021/07/02 08:12:43;;;;;;;1.50;0.90;;;21.90;85.20;;;;;;5048781;28;20480;-78
2021/07/02 08:15:12;;;;;;;1.50;0.90;;;22.10;84.80;;;;;;5031118;28;20467;-77
2021/07/02 08:17:40;;;;;;;1.60;1.10;;;22.20;83.20;;;;;;5049576;28;20485;-79
2021/07/02 08:20:09;;;;;;;1.60;1.00;;;22.20;82.60;;;;;;5031265;28;20467;-76
2021/07/02 08:22:36;;;;;;;1.50;0.90;;;22.20;83.20;;;;;;5046353;28;20485;-76
2021/07/02 08:25:04;;;;;;;1.50;0.90;;;22.20;82.30;;;;;;5030405;28;20495;-76
2021/07/02 08:27:35;;;;;;;1.50;0.90;;;22.10;82.70;;;;;;5045401;28;20480;-77
2021/07/02 08:30:02;;;;;;;1.50;0.90;;;22.10;83.20;;;;;;5030579;28;20463;-77
2021/07/02 08:32:29;;;;;;;1.50;0.90;;;22.00;82.70;;;;;;5042163;28;20481;-76
2021/07/02 08:34:56;;;;;;;1.50;0.80;;;22.00;83.20;;;;;;5030408;28;20466;-77
2021/07/02 08:37:23;;;;;;;1.50;0.90;;;21.90;83.30;;;;;;5030796;28;20477;-76
2021/07/02 08:39:49;;;;;;;1.50;0.90;;;21.90;83.20;;;;;;5030464;28;20555;-78
2021/07/02 08:42:16;;;;;;;1.50;0.90;;;21.90;83.20;;;;;;5041180;28;20580;-77
2021/07/02 08:44:43;;;;;;;1.50;0.90;;;22.00;83.30;;;;;;5036933;28;20474;-77
2021/07/02 08:47:11;;;;;;;1.50;0.90;;;22.00;83.80;;;;;;5028263;28;21063;-77
2021/07/02 08:49:43;;;;;;;1.50;0.90;;;22.10;82.00;;;;;;5032567;28;20513;-76
2021/07/02 08:52:10;;;;;;;1.50;0.87;;;22.20;82.10;;;;;;5037205;28;20489;-76
2021/07/02 08:54:36;;;;;;;1.50;0.90;;;22.30;81.70;;;;;;5036782;28;20955;-77
2021/07/02 08:57:04;;;;;;;1.50;0.90;;;22.40;81.60;;;;;;5036646;28;20580;-77
2021/07/02 08:59:31;;;;;;;1.50;0.90;;;22.50;80.60;;;;;;5038136;28;20542;-76
2021/07/02 09:01:58;;;;;;;1.50;0.90;;;22.50;80.80;;;;;;5032827;28;20977;-76
2021/07/02 09:04:29;;;;;;;1.50;0.90;;;22.60;81.00;;;;;;5041728;28;20486;-76
2021/07/02 09:07:07;;;;;;;1.50;0.90;;;22.80;81.60;;;;;;5038046;28;20580;-77
2021/07/02 09:10:00;;;;;;;1.50;0.90;;;23.00;81.20;;;;;;5039568;28;20553;-78
2021/07/02 09:12:29;;;;;;;1.57;0.90;;;23.20;80.10;;;;;;5047153;28;20512;-76
2021/07/02 09:15:10;;;;;;;1.50;0.90;;;23.30;79.60;;;;;;5035393;28;20470;-76
2021/07/02 09:17:38;;;;;;;1.50;0.90;;;23.50;78.70;;;;;;5046955;28;21048;-76
2021/07/02 09:20:13;;;;;;;1.50;0.90;;;23.70;78.30;;;;;;5032456;28;20459;-76
2021/07/02 09:22:42;;;;;;;1.57;0.80;;;23.80;78.90;;;;;;5050921;28;20492;-76
2021/07/02 09:25:20;;;;;;;1.57;0.90;;;23.90;79.10;;;;;;5032353;28;20470;-76
2021/07/02 09:27:48;;;;;;;1.50;0.90;;;24.00;77.50;;;;;;5049910;28;20503;-76
2021/07/02 09:30:18;;;;;;;1.50;0.90;;;24.00;78.40;;;;;;5031048;28;20470;-76
2021/07/02 09:32:47;;;;;;;1.50;0.80;;;24.00;77.50;;;;;;5047659;28;20482;-77
2021/07/02 09:35:17;;;;;;;1.50;0.90;;;24.10;78.90;;;;;;5031457;28;20519;-77
2021/07/02 09:37:47;;;;;;;1.50;0.90;;;24.20;78.70;;;;;;5036162;28;21193;-78
2021/07/02 09:40:18;;;;;;;1.50;0.80;;;24.20;79.00;;;;;;5031032;28;20458;-76
2021/07/02 09:42:45;;;;;;;1.50;0.90;;;24.30;78.90;;;;;;5035903;28;20482;-76
2021/07/02 09:45:13;;;;;;;1.50;0.80;;;24.20;77.80;;;;;;5031845;28;20481;-77
2021/07/02 09:47:42;;;;;;;1.50;0.90;;;24.10;78.60;;;;;;5049008;28;20469;-76
2021/07/02 09:50:25;;;;;;;1.50;0.87;;;24.00;78.10;;;;;;5030654;28;20474;-76
2021/07/02 09:52:55;;;;;;;1.50;0.90;;;23.90;77.10;;;;;;5050709;28;20484;-76
2021/07/02 09:55:23;;;;;;;1.50;0.80;;;23.80;77.80;;;;;;5032175;28;20459;-77
2021/07/02 09:57:54;;;;;;;1.50;0.90;;;23.80;78.80;;;;;;5051200;28;20481;-78
2021/07/02 10:00:21;;;;;;;1.50;0.90;;;23.90;79.10;;;;;;5031332;28;20513;-77
2021/07/02 10:02:55;;;;;;;1.50;0.90;;;24.10;78.40;;;;;;5038631;28;20509;-80
2021/07/02 10:05:24;;;;;;;1.50;0.87;;;24.20;78.60;;;;;;5032912;28;20470;-78
2021/07/02 10:08:00;;;;;;;1.50;0.90;;;24.40;76.90;;;;;;5052536;28;20474;-76
2021/07/02 10:10:28;;;;;;;1.50;0.90;;;24.50;76.40;;;;;;5034437;28;20604;-81
2021/07/02 10:12:57;;;;;;;1.50;0.90;;;24.50;76.80;;;;;;5051931;28;20606;-77
2021/07/02 10:15:24;;;;;;;1.50;0.90;;;24.70;76.30;;;;;;5036029;28;20487;-77
2021/07/02 10:17:53;;;;;;;1.50;0.90;;;25.10;76.70;;;;;;5057024;28;20553;-76
2021/07/02 10:20:21;;;;;;;1.50;0.90;;;25.20;76.40;;;;;;5032424;28;20467;-78
2021/07/02 10:22:51;;;;;;;1.50;0.90;;;25.40;75.50;;;;;;5038623;28;20507;-74
2021/07/02 10:25:20;;;;;;;1.50;0.87;;;25.60;74.10;;;;;;5031139;28;20458;-76
2021/07/02 10:27:47;;;;;;;1.50;0.90;;;25.60;74.40;;;;;;5054902;28;20679;-76
2021/07/02 10:31:03;;;;;;;1.50;0.90;;;25.70;74.90;;;;;;5030552;28;20633;-75
2021/07/02 10:33:33;;;;;;;1.50;0.80;;;25.70;74.40;;;;;;5018564;28;21016;-73
2021/07/02 10:36:03;;;;;;;1.50;0.80;;;25.50;74.70;;;;;;5033051;28;20470;-73
2021/07/02 10:38:40;;;;;;;1.50;0.87;;;25.30;75.30;;;;;;5039170;28;20466;-73
2021/07/02 10:41:14;;;;;;;1.50;0.90;;;25.00;75.50;;;;;;5027246;28;20487;-75
2021/07/02 10:44:03;;;;;;;1.50;1.10;;;24.70;77.20;;;;;;5055802;28;20562;-75
2021/07/02 10:46:31;;;;;;;1.50;0.90;;;24.50;78.30;;;;;;5030925;28;20474;-75
2021/07/02 10:49:03;;;;;;;1.50;0.90;;;24.60;78.40;;;;;;5049241;28;20494;-74
2021/07/02 10:51:49;;;;;;;1.50;0.80;;;24.90;75.70;;;;;;5029334;28;20481;-74
2021/07/02 10:54:37;;;;;;;1.50;0.90;;;25.00;75.90;;;;;;5044474;28;20462;-75
2021/07/02 10:57:15;;;;;;;1.50;0.80;;;25.10;76.30;;;;;;5038642;28;20469;-74
2021/07/02 11:00:08;;;;;;;1.50;0.80;;;25.10;76.60;;;;;;5037783;28;20600;-75
2021/07/02 11:02:35;;;;;;;1.50;0.90;;;25.20;77.20;;;;;;5049715;28;21005;-75
2021/07/02 11:05:05;;;;;;;1.50;0.80;;;25.10;76.30;;;;;;5032836;28;20469;-74
2021/07/02 11:07:43;;;;;;;1.50;0.90;;;25.10;76.50;;;;;;5032383;28;20650;-75
2021/07/02 11:10:12;;;;;;;1.50;0.83;;;25.10;76.40;;;;;;5027252;28;20908;-75
2021/07/02 11:13:03;;;;;;;1.50;0.80;;;25.00;76.60;;;;;;5048284;28;20484;-75
2021/07/02 11:15:31;;;;;;;1.50;0.83;;;24.90;76.30;;;;;;5025266;28;20510;-75
2021/07/02 11:18:12;;;;;;;1.50;0.90;;;24.80;77.10;;;;;;5034534;28;20472;-75
2021/07/02 11:20:39;;;;;;;1.50;0.90;;;24.70;77.80;;;;;;5028779;28;20475;-75
2021/07/02 11:23:24;;;;;;;1.50;0.90;;;24.60;77.90;;;;;;5047405;28;20478;-74
2021/07/02 11:25:59;;;;;;;1.50;0.80;;;24.80;76.60;;;;;;5016606;28;20466;-75
2021/07/02 11:28:42;;;;;;;1.50;0.90;;;25.20;77.30;;;;;;5054851;28;20849;-75
2021/07/02 11:31:12;;;;;;;1.50;0.90;;;25.40;76.40;;;;;;5023429;28;20477;-75
2021/07/02 11:33:39;;;;;;;1.70;1.27;;;25.40;76.60;;;;;;5052215;28;20478;-76
2021/07/02 11:36:14;;;;;;;1.50;0.90;;;25.20;76.80;;;;;;5022534;28;20478;-76
2021/07/02 11:38:50;;;;;;;1.50;0.90;;;25.10;77.70;;;;;;5050427;28;20462;-75
2021/07/02 11:41:29;;;;;;;1.50;0.90;;;25.10;76.80;;;;;;5020998;28;20484;-75
2021/07/02 11:44:02;;;;;;;1.50;0.90;;;25.20;77.70;;;;;;5044060;28;20455;-75
2021/07/02 11:46:30;;;;;;;1.50;0.80;;;25.30;77.10;;;;;;5026787;28;20477;-74
2021/07/02 11:48:58;;;;;;;1.50;0.80;;;25.40;75.90;;;;;;5048745;28;20526;-76
2021/07/02 11:51:28;;;;;;;1.47;0.80;;;25.50;75.60;;;;;;5026573;28;20484;-75
2021/07/02 11:53:56;;;;;;;1.70;1.00;;;25.50;76.80;;;;;;5047804;28;20471;-75
2021/07/02 11:56:25;;;;;;;1.50;0.90;;;25.50;76.30;;;;;;5025871;28;20479;-75
2021/07/02 11:58:57;;;;;;;1.50;0.83;;;25.50;76.10;;;;;;5049000;28;20565;-74
2021/07/02 12:01:26;;;;;;;1.50;1.00;;;25.60;76.10;;;;;;5023687;28;20542;-76
2021/07/02 12:03:54;;;;;;;1.47;0.80;;;25.50;75.30;;;;;;5045800;28;20471;-76
2021/07/02 12:06:26;;;;;;;1.50;0.80;;;25.40;76.60;;;;;;5020706;28;20751;-76
2021/07/02 12:08:57;;;;;;;1.50;0.90;;;25.50;76.70;;;;;;5047142;28;20455;-75
2021/07/02 12:11:29;;;;;;;1.50;0.90;;;25.80;75.70;;;;;;5023093;28;20479;-75
2021/07/02 12:13:58;;;;;;;1.50;0.80;;;26.30;74.80;;;;;;5038758;28;20494;-76
2021/07/02 12:16:33;;;;;;;1.50;0.90;;;26.40;74.20;;;;;;5023252;28;20904;-77
2021/07/02 12:19:00;;;;;;;1.50;0.80;;;26.30;74.00;;;;;;5040751;28;20469;-75
2021/07/02 12:21:31;;;;;;;1.50;0.80;;;26.20;74.00;;;;;;5025434;28;20520;-76
2021/07/02 12:24:00;;;;;;;1.50;0.90;;;26.20;74.00;;;;;;5044840;28;20470;-76
2021/07/02 12:26:29;;;;;;;1.50;0.80;;;26.00;74.10;;;;;;5024647;28;20468;-76
2021/07/02 12:29:06;;;;;;;1.50;0.83;;;25.80;74.50;;;;;;5045479;28;20998;-77
2021/07/02 12:31:34;;;;;;;1.60;1.20;;;25.80;74.90;;;;;;5026195;28;20488;-75
2021/07/02 12:34:02;;;;;;;1.50;0.83;;;25.90;75.70;;;;;;5039201;28;20546;-75
2021/07/02 12:36:30;;;;;;;1.50;0.90;;;26.20;74.90;;;;;;5027129;28;20472;-77
2021/07/02 12:39:10;;;;;;;1.50;0.80;;;26.60;74.50;;;;;;5047514;28;20469;-77
2021/07/02 12:41:40;;;;;;;1.50;0.83;;;26.90;74.20;;;;;;5031031;28;20476;-76
2021/07/02 12:44:08;;;;;;;1.50;0.80;;;27.00;72.00;;;;;;5047295;28;20753;-77
2021/07/02 12:46:36;;;;;;;1.50;0.90;;;26.80;72.50;;;;;;5033902;28;20474;-77
2021/07/02 12:49:30;;;;;;;1.50;0.90;;;26.70;74.20;;;;;;5049878;28;20490;-77
2021/07/02 12:54:50;;;;;;;1.50;0.80;;;27.00;72.70;;;;;;5036036;28;20723;-75
2021/07/02 12:57:38;;;;;;;1.60;1.10;;;27.10;74.80;;;;;;5041693;28;20563;-76
2021/07/02 13:00:09;;;;;;;1.50;0.80;;;26.90;72.40;;;;;;5027803;28;21051;-76